Time;durP1;ratioP1;P1;durP2;ratioP2;P2;SDS_P1;SDS_P2;PMS_P1;PMS_P2;Temp;Humidity;BMP_temperature;BMP_pressure;BME280_temperature;BME280_humidity;BME280_pressure;Samples;Min_cycle;Max_cycle;Signal;HPM_P1;HPM_P2
2021/10/21 00:01:11;;;;;;;2.40;2.20;;;20.90;52.30;;;24.70;35.37;98997.13;5093954;28;20051;-8
2021/10/21 00:03:37;;;;;;;2.63;2.40;;;20.90;52.30;;;24.69;35.43;98984.78;5094537;28;20040;-8
2021/10/21 00:06:04;;;;;;;2.20;2.00;;;21.00;52.30;;;24.69;35.50;98973.25;5094108;28;20052;-8
2021/10/21 00:08:30;;;;;;;2.85;2.40;;;20.90;52.20;;;24.68;35.43;98966.25;5075422;28;20052;-8
2021/10/21 00:10:57;;;;;;;2.72;2.20;;;20.90;52.30;;;24.68;35.23;98968.91;5093839;28;20105;-8
2021/10/21 00:13:24;;;;;;;2.83;2.53;;;20.90;52.30;;;24.70;35.45;98980.28;5093764;28;20059;-8
2021/10/21 00:15:50;;;;;;;2.75;2.28;;;20.90;52.30;;;24.67;35.29;98972.59;5093813;28;20067;-8
2021/10/21 00:18:17;;;;;;;2.95;2.17;;;20.90;52.30;;;24.70;35.32;98961.56;5093381;28;20416;-8
2021/10/21 00:20:43;;;;;;;2.80;2.15;;;20.90;52.20;;;24.69;35.21;98943.84;5093396;28;20569;-8
2021/10/21 00:23:09;;;;;;;2.35;2.15;;;20.90;52.30;;;24.68;35.30;98939.53;5093641;28;20056;-8
2021/10/21 00:25:35;;;;;;;2.33;1.98;;;20.90;52.30;;;24.69;35.30;98930.50;5093401;28;20428;-8
2021/10/21 00:28:00;;;;;;;2.92;2.47;;;20.90;52.30;;;24.67;35.46;98927.16;5093409;28;20056;-8
2021/10/21 00:30:27;;;;;;;2.15;1.95;;;20.90;52.30;;;24.69;35.58;98925.13;5093268;28;20086;-8
2021/10/21 00:32:53;;;;;;;2.28;1.98;;;20.90;52.30;;;24.66;35.06;98920.13;5093645;28;20507;-8
2021/10/21 00:35:19;;;;;;;2.30;2.05;;;20.90;52.30;;;24.69;35.40;98922.47;5093424;28;20044;-8
2021/10/21 00:37:44;;;;;;;2.30;2.10;;;20.90;52.30;;;24.68;35.26;98910.13;5093297;28;20062;-8
2021/10/21 00:40:11;;;;;;;2.50;2.30;;;20.90;52.30;;;24.69;35.49;98909.97;5093391;28;20078;-8
2021/10/21 00:42:37;;;;;;;2.33;2.13;;;20.90;52.30;;;24.65;35.26;98892.56;5093320;28;20141;-8
2021/10/21 00:45:05;;;;;;;2.90;1.95;;;20.90;52.30;;;24.65;35.35;98891.75;5093288;28;20476;-8
2021/10/21 00:47:31;;;;;;;2.50;2.30;;;20.90;52.40;;;24.68;35.49;98889.56;5093139;28;20043;-8
2021/10/21 00:49:56;;;;;;;2.38;2.17;;;20.90;52.40;;;24.65;35.29;98881.06;5093520;28;20484;-8
2021/10/21 00:52:24;;;;;;;2.42;2.22;;;20.90;52.30;;;24.66;35.46;98864.88;5093048;28;20518;-8
2021/10/21 00:54:51;;;;;;;2.55;1.90;;;20.90;52.20;;;24.64;35.24;98853.50;5091838;28;20044;-8
2021/10/21 00:57:17;;;;;;;2.35;2.15;;;20.90;52.80;;;24.65;35.41;98840.97;5091681;28;20044;-8
2021/10/21 00:59:45;;;;;;;2.22;2.03;;;20.90;52.30;;;24.65;35.28;98835.63;5092963;28;20135;-8
2021/10/21 01:02:11;;;;;;;2.33;2.13;;;20.90;52.30;;;24.65;35.41;98815.09;5093048;28;20067;-8
2021/10/21 01:04:39;;;;;;;2.67;1.90;;;20.90;52.20;;;24.66;35.38;98799.88;5092893;28;20613;-8
2021/10/21 01:07:06;;;;;;;2.05;1.85;;;20.90;52.30;;;24.66;35.45;98787.38;5092964;28;20060;-8
2021/10/21 01:09:33;;;;;;;2.08;1.90;;;20.90;52.20;;;24.66;35.51;98779.34;5093197;28;20458;-8
2021/10/21 01:11:59;;;;;;;2.53;2.28;;;20.90;52.20;;;24.67;35.44;98774.84;5092939;28;20476;-8
2021/10/21 01:14:25;;;;;;;2.20;2.00;;;20.90;52.30;;;24.63;35.34;98755.63;5092584;28;20058;-8
2021/10/21 01:16:51;;;;;;;2.53;2.05;;;20.90;52.30;;;24.65;35.23;98750.94;5092811;28;20052;-8
2021/10/21 01:19:23;;;;;;;2.88;2.10;;;20.90;52.30;;;24.68;35.38;98739.09;5092769;28;20093;-8
2021/10/21 01:21:52;;;;;;;2.30;2.10;;;20.90;52.30;;;24.67;35.33;98732.06;5092750;28;20048;-8
2021/10/21 01:24:19;;;;;;;2.35;2.03;;;20.90;52.30;;;24.64;35.39;98711.91;5091714;28;20055;-8
2021/10/21 01:26:48;;;;;;;2.15;1.95;;;20.90;52.30;;;24.63;35.45;98707.53;5092770;28;20044;-8
2021/10/21 01:29:16;;;;;;;3.00;2.15;;;20.90;52.20;;;24.66;35.43;98706.34;5092571;28;20511;-8
2021/10/21 01:31:43;;;;;;;2.13;1.92;;;20.90;52.30;;;24.65;35.40;98700.19;5074557;28;20040;-8
2021/10/21 01:34:10;;;;;;;2.03;1.92;;;20.90;52.20;;;24.66;35.40;98690.31;5091406;28;20051;-8
2021/10/21 01:36:37;;;;;;;2.70;2.15;;;20.90;52.20;;;24.64;35.26;98679.81;5092565;28;20048;-8
2021/10/21 01:39:09;;;;;;;2.08;1.88;;;20.90;52.20;;;24.63;35.36;98669.31;5092511;28;20488;-8
2021/10/21 01:41:35;;;;;;;2.33;1.90;;;20.90;52.30;;;24.63;35.40;98655.94;5092548;28;20056;-8
2021/10/21 01:44:01;;;;;;;1.90;1.75;;;20.90;52.30;;;24.65;35.35;98640.56;5092480;28;20076;-8
2021/10/21 01:46:27;;;;;;;2.50;2.30;;;20.90;52.30;;;24.66;35.27;98631.53;5092460;28;20078;-8
2021/10/21 01:48:53;;;;;;;2.00;1.80;;;20.90;52.20;;;24.65;35.46;98611.19;5092680;28;20052;-8
2021/10/21 01:51:19;;;;;;;2.38;1.77;;;20.90;52.20;;;24.65;35.49;98605.84;5092364;28;20102;-8
2021/10/21 01:53:45;;;;;;;2.67;2.00;;;20.90;52.20;;;24.62;35.35;98600.84;5091080;28;20492;-8
2021/10/21 01:56:11;;;;;;;2.30;1.88;;;20.90;52.20;;;24.64;35.44;98588.13;5092220;28;20488;-8
2021/10/21 01:58:37;;;;;;;1.95;1.77;;;20.90;52.20;;;24.65;35.27;98579.13;5088801;28;20079;-8
2021/10/21 02:01:03;;;;;;;2.45;1.90;;;20.90;52.20;;;24.64;35.49;98582.78;5092171;28;20512;-8
2021/10/21 02:03:29;;;;;;;3.10;2.22;;;20.90;52.20;;;24.65;35.23;98579.94;5094446;28;20044;-8
2021/10/21 02:05:57;;;;;;;2.00;1.80;;;20.90;52.40;;;24.64;35.46;98575.63;5095885;28;20040;-8
2021/10/21 02:08:24;;;;;;;1.98;1.75;;;20.80;52.30;;;24.65;35.27;98571.09;5095691;28;20438;-8
2021/10/21 02:10:50;;;;;;;2.58;2.30;;;20.90;52.30;;;24.65;35.30;98558.56;5077802;28;20052;-8
2021/10/21 02:13:16;;;;;;;3.08;2.08;;;20.90;52.20;;;24.65;35.45;98553.22;5076297;28;20400;-8
2021/10/21 02:15:41;;;;;;;2.10;1.90;;;20.90;52.20;;;24.64;35.23;98540.88;5075609;28;20048;-8
2021/10/21 02:18:07;;;;;;;2.08;1.88;;;20.90;52.20;;;24.66;35.15;98540.69;5095369;28;20458;-8
2021/10/21 02:20:34;;;;;;;1.85;1.70;;;20.90;52.20;;;24.65;35.50;98536.38;5095222;28;20067;-8
2021/10/21 02:22:59;;;;;;;2.13;1.92;;;20.90;52.20;;;24.64;35.29;98513.31;5095503;28;20480;-8
2021/10/21 02:25:26;;;;;;;2.00;1.80;;;20.90;52.20;;;24.60;35.36;98489.59;5077282;28;20048;-8
2021/10/21 02:27:52;;;;;;;2.75;2.03;;;20.90;52.20;;;24.62;35.43;98485.94;5095929;28;20055;-8
2021/10/21 02:30:20;;;;;;;3.40;1.88;;;20.80;52.30;;;24.60;35.46;98484.28;5095427;28;20056;-8
2021/10/21 02:32:46;;;;;;;2.38;1.75;;;20.90;52.30;;;24.64;35.25;98484.78;5095357;28;20366;-8
2021/10/21 02:35:12;;;;;;;2.33;1.98;;;20.80;52.20;;;24.64;35.25;98478.56;5095937;28;20055;-8
2021/10/21 02:37:40;;;;;;;2.10;1.90;;;20.90;52.20;;;24.63;35.33;98469.75;5095116;28;20071;-8
2021/10/21 02:40:09;;;;;;;1.98;1.77;;;20.90;52.20;;;24.64;35.23;98474.09;5095307;28;20136;-8
2021/10/21 02:42:36;;;;;;;2.03;1.83;;;20.90;52.20;;;24.62;35.40;98453.88;5095159;28;20055;-8
2021/10/21 02:45:05;;;;;;;2.10;1.90;;;20.90;52.20;;;24.63;35.47;98452.88;5095189;28;20048;-8
2021/10/21 02:47:31;;;;;;;2.10;1.83;;;20.90;52.30;;;24.63;35.26;98412.81;5091384;28;20094;-8
2021/10/21 02:49:56;;;;;;;2.83;2.00;;;20.90;52.20;;;24.63;35.05;98416.31;5095182;28;20555;-8
2021/10/21 02:52:22;;;;;;;2.20;1.95;;;20.90;52.20;;;24.64;35.28;98403.75;5076975;28;20044;-8
2021/10/21 02:54:48;;;;;;;1.73;1.63;;;20.80;52.20;;;24.64;35.35;98363.69;5094955;28;20044;-8
2021/10/21 02:57:14;;;;;;;2.25;1.90;;;20.80;52.20;;;24.63;35.40;98354.84;5094945;28;20044;-8
2021/10/21 02:59:40;;;;;;;1.98;1.60;;;20.90;52.30;;;24.61;35.27;98340.84;5094942;28;20065;-8
2021/10/21 03:02:05;;;;;;;2.00;1.77;;;20.80;52.30;;;24.62;35.34;98328.31;5076900;28;20044;-8
2021/10/21 03:04:31;;;;;;;2.13;1.92;;;20.80;52.30;;;24.61;35.34;98327.50;5095210;28;20048;-8
2021/10/21 03:06:57;;;;;;;2.53;1.70;;;20.70;52.70;;;24.59;35.43;98318.78;5076689;28;20483;-8
2021/10/21 03:09:23;;;;;;;1.85;1.63;;;20.60;52.90;;;24.61;35.39;98292.75;5094776;28;20048;-8
2021/10/21 03:11:48;;;;;;;2.97;2.00;;;20.60;52.90;;;24.59;35.38;98271.56;5094723;28;20059;-8
2021/10/21 03:14:14;;;;;;;2.22;2.00;;;20.60;53.10;;;24.58;35.36;98269.06;5093980;28;20050;-8
2021/10/21 03:16:40;;;;;;;2.47;1.92;;;20.50;53.20;;;24.56;35.53;98247.88;5094879;28;20055;-8
2021/10/21 03:19:08;;;;;;;2.35;1.80;;;20.50;53.30;;;24.58;35.60;98232.50;5094728;28;20052;-8
2021/10/21 03:21:34;;;;;;;2.05;1.85;;;20.50;53.30;;;24.61;35.61;98217.94;5094455;28;20052;-8
2021/10/21 03:24:00;;;;;;;1.85;1.70;;;20.50;53.30;;;24.62;35.61;98206.22;5076496;28;20134;-9
2021/10/21 03:26:26;;;;;;;1.92;1.70;;;20.60;53.20;;;24.59;35.54;98195.91;5094411;28;20097;-8
2021/10/21 03:28:53;;;;;;;2.45;1.60;;;20.60;53.20;;;24.61;35.54;98180.53;5094502;28;20048;-8
2021/10/21 03:31:19;;;;;;;2.42;1.75;;;20.60;53.20;;;24.63;35.54;98178.50;5094505;28;20503;-8
2021/10/21 03:33:46;;;;;;;2.00;1.70;;;20.60;53.20;;;24.66;35.50;98159.44;5094434;28;20074;-8
2021/10/21 03:36:11;;;;;;;2.22;1.65;;;20.60;53.20;;;24.67;35.63;98136.22;5094341;28;20047;-8
2021/10/21 03:38:38;;;;;;;2.08;1.88;;;20.60;53.20;;;24.64;35.43;98113.38;5094408;28;20108;-8
2021/10/21 03:41:04;;;;;;;2.25;1.88;;;20.70;53.20;;;24.71;35.64;98106.28;5076132;28;20043;-8
2021/10/21 03:43:30;;;;;;;1.77;1.60;;;20.70;53.00;;;24.72;35.46;98102.56;5094313;28;20048;-9
2021/10/21 03:45:57;;;;;;;1.83;1.73;;;20.80;52.90;;;24.72;35.63;98083.88;5094331;28;20532;-9
2021/10/21 03:48:24;;;;;;;2.20;1.90;;;20.80;52.80;;;24.74;35.47;98070.31;5075971;28;20050;-9
2021/10/21 03:50:50;;;;;;;3.45;2.05;;;20.90;52.90;;;24.78;35.56;98077.78;5093942;28;20044;-8
2021/10/21 03:53:16;;;;;;;2.53;1.88;;;20.80;52.90;;;24.80;35.43;98071.44;5094003;28;20507;-9
2021/10/21 03:55:42;;;;;;;2.13;2.03;;;20.90;52.90;;;24.83;35.51;98063.06;5094156;28;20433;-8
2021/10/21 03:58:09;;;;;;;2.95;2.00;;;20.90;52.70;;;24.81;35.44;98062.38;5093689;28;20056;-8
2021/10/21 04:00:34;;;;;;;2.67;1.90;;;21.00;52.50;;;24.85;35.43;98069.84;5093751;28;20075;-8
2021/10/21 04:03:00;;;;;;;2.25;1.70;;;21.00;52.40;;;24.87;35.49;98061.66;5094320;28;20104;-8
2021/10/21 04:05:26;;;;;;;2.22;1.70;;;21.10;52.30;;;24.89;35.40;98036.41;5093904;28;20056;-8
2021/10/21 04:07:52;;;;;;;2.78;1.77;;;21.10;52.90;;;24.88;35.40;98036.59;5094160;28;20492;-8
2021/10/21 04:10:18;;;;;;;2.38;1.90;;;21.10;52.40;;;24.90;35.26;98056.75;5093550;28;20106;-8
2021/10/21 04:12:45;;;;;;;1.70;1.60;;;21.00;52.40;;;24.90;35.47;98069.28;5091738;28;20503;-8
2021/10/21 04:15:11;;;;;;;2.47;1.65;;;21.10;52.40;;;24.93;35.29;98109.00;5094241;28;20044;-8
2021/10/21 04:17:38;;;;;;;2.67;1.98;;;21.10;52.40;;;24.92;35.35;98100.16;5093650;28;20044;-9
2021/10/21 04:20:05;;;;;;;2.13;1.70;;;21.10;52.30;;;24.90;35.49;98096.84;5093650;28;20048;-8
2021/10/21 04:22:31;;;;;;;2.65;1.77;;;21.10;52.20;;;24.91;35.30;98079.81;5093724;28;20510;-8
2021/10/21 04:24:58;;;;;;;1.80;1.45;;;21.10;52.30;;;24.93;35.48;98079.63;5093211;28;20051;-8
2021/10/21 04:27:24;;;;;;;2.13;1.75;;;21.10;52.40;;;24.95;35.38;98102.44;5093761;28;20557;-8
2021/10/21 04:29:50;;;;;;;2.00;1.80;;;21.10;52.30;;;24.95;35.24;98085.59;5093540;28;20070;-8
2021/10/21 04:32:16;;;;;;;2.67;1.83;;;21.10;52.30;;;24.94;35.45;98049.19;5093996;28;20048;-8
2021/10/21 04:34:42;;;;;;;2.00;1.80;;;21.10;52.30;;;24.99;35.24;98051.28;5093507;28;20090;-8
2021/10/21 04:37:08;;;;;;;2.30;1.88;;;21.10;52.50;;;24.99;35.36;98053.97;5093374;28;20083;-8
2021/10/21 04:39:33;;;;;;;3.40;2.28;;;21.00;52.60;;;24.98;35.33;98045.13;5093737;28;20399;-8
2021/10/21 04:41:59;;;;;;;3.35;2.05;;;21.00;52.70;;;24.98;35.42;98034.44;5093633;28;20387;-8
2021/10/21 04:44:25;;;;;;;1.55;1.40;;;21.00;52.80;;;24.96;35.30;98028.47;5093173;28;20040;-8
2021/10/21 04:46:51;;;;;;;1.80;1.70;;;21.00;52.60;;;24.97;35.41;98024.75;5093369;28;20055;-8
2021/10/21 04:49:16;;;;;;;3.80;2.08;;;21.10;52.50;;;24.95;35.29;98032.13;5093534;28;20113;-8
2021/10/21 04:51:42;;;;;;;2.33;2.03;;;21.10;52.40;;;24.95;35.25;98030.28;5093512;28;20052;-8
2021/10/21 04:54:08;;;;;;;1.63;1.48;;;21.10;52.60;;;24.95;35.26;98030.28;5093107;28;20369;-8
2021/10/21 04:56:34;;;;;;;3.40;2.22;;;21.00;52.70;;;24.96;35.35;98028.47;5093107;28;20406;-8
2021/10/21 04:59:00;;;;;;;2.42;1.73;;;21.10;52.70;;;24.96;35.38;98009.75;5093124;28;20047;-8
2021/10/21 05:01:26;;;;;;;4.20;2.33;;;21.10;52.60;;;24.95;35.45;98024.94;5074929;28;20428;-8
2021/10/21 05:03:51;;;;;;;2.30;1.90;;;21.00;52.70;;;24.96;35.36;98012.41;5093060;28;20048;-8
2021/10/21 05:06:17;;;;;;;3.88;2.15;;;21.00;52.80;;;24.96;35.54;98037.28;5092989;28;20105;-8
2021/10/21 05:08:43;;;;;;;3.30;1.75;;;21.00;53.00;;;24.93;35.57;98039.53;5092969;28;20048;-8
2021/10/21 05:11:09;;;;;;;2.10;1.90;;;20.90;53.10;;;24.93;35.46;98040.34;5092731;28;20040;-8
2021/10/21 05:13:34;;;;;;;3.58;1.92;;;21.00;53.00;;;24.95;35.42;98054.34;5092908;28;20048;-8
2021/10/21 05:16:00;;;;;;;3.00;1.95;;;21.00;52.70;;;24.94;35.50;98071.41;5093372;28;20056;-8
2021/10/21 05:18:27;;;;;;;4.68;2.40;;;21.10;52.60;;;24.96;35.36;98076.56;5092687;28;20109;-8
2021/10/21 05:20:55;;;;;;;3.38;1.92;;;21.10;52.50;;;24.92;35.52;98077.94;5092707;28;20044;-7
2021/10/21 05:23:22;;;;;;;4.05;1.83;;;21.10;52.40;;;24.94;35.42;98090.13;5092721;28;20048;-8
2021/10/21 05:25:48;;;;;;;3.40;1.90;;;21.20;52.40;;;24.95;35.45;98082.91;5092351;28;20059;-8
2021/10/21 05:28:14;;;;;;;3.25;1.70;;;21.20;52.40;;;24.93;35.48;98074.28;5092552;28;20131;-8
2021/10/21 05:30:40;;;;;;;5.20;2.05;;;21.20;52.40;;;24.96;35.45;98088.09;5092291;28;20419;-8
2021/10/21 05:33:06;;;;;;;2.85;1.80;;;21.20;52.50;;;24.95;35.43;98080.25;5091207;28;20048;-8
2021/10/21 05:35:32;;;;;;;3.70;2.05;;;21.20;52.40;;;24.96;35.45;98081.91;5073611;28;20052;-8
2021/10/21 05:37:58;;;;;;;3.17;1.70;;;21.20;52.30;;;24.93;35.48;98079.63;5093785;28;20580;-8
2021/10/21 05:40:25;;;;;;;3.05;2.03;;;21.20;52.30;;;24.96;35.34;98085.41;5096052;28;20453;-8
2021/10/21 05:42:50;;;;;;;1.95;1.80;;;21.20;52.30;;;24.98;35.46;98087.91;5096124;28;20051;-8
2021/10/21 05:45:16;;;;;;;3.17;2.00;;;21.20;52.30;;;24.96;35.52;98085.41;5096192;28;20396;-8
2021/10/21 05:47:42;;;;;;;2.08;1.70;;;21.20;52.30;;;24.95;35.46;98086.41;5096374;28;20477;-8
2021/10/21 05:50:09;;;;;;;3.38;1.60;;;21.20;52.40;;;24.94;35.40;98083.94;5095757;28;20472;-8
2021/10/21 05:52:36;;;;;;;2.35;1.67;;;21.20;52.40;;;24.97;35.41;98091.56;5096105;28;20044;-8
2021/10/21 05:55:04;;;;;;;3.65;1.80;;;21.20;52.40;;;24.97;35.51;98080.88;5096092;28;20117;-8
2021/10/21 05:57:30;;;;;;;2.85;2.00;;;21.20;52.30;;;24.96;35.48;98088.09;5096166;28;20044;-8
2021/10/21 05:59:56;;;;;;;2.15;1.77;;;21.20;52.30;;;24.96;35.50;98073.91;5095817;28;20048;-8
2021/10/21 06:02:22;;;;;;;2.20;1.83;;;21.20;52.40;;;24.96;35.39;98071.22;5096217;28;20044;-8
2021/10/21 06:04:47;;;;;;;2.03;1.48;;;21.20;52.30;;;24.96;35.50;98069.38;5096027;28;20040;-8
2021/10/21 06:07:14;;;;;;;2.95;1.92;;;21.10;52.60;;;24.94;35.44;98060.72;5095716;28;20404;-8
2021/10/21 06:09:41;;;;;;;4.80;1.80;;;21.10;52.50;;;24.94;35.41;98057.19;5095620;28;20131;-8
2021/10/21 06:12:07;;;;;;;4.22;2.10;;;21.10;52.50;;;24.98;35.52;98071.84;5096117;28;20044;-8
2021/10/21 06:14:33;;;;;;;4.72;1.88;;;21.10;52.60;;;24.99;35.52;98060.13;5095719;28;20113;-8
2021/10/21 06:17:00;;;;;;;5.05;2.30;;;21.10;52.60;;;24.98;35.40;98063.00;5095333;28;20468;-9
2021/10/21 06:19:27;;;;;;;2.35;1.83;;;21.10;52.50;;;24.99;35.39;98059.31;5095443;28;20040;-8
2021/10/21 06:21:58;;;;;;;2.35;1.40;;;21.10;52.60;;;24.96;35.29;98058.69;5095607;28;20143;-9
2021/10/21 06:24:25;;;;;;;2.80;1.60;;;21.10;52.50;;;25.00;35.49;98047.63;5095614;28;20063;-8
2021/10/21 06:26:50;;;;;;;2.92;2.03;;;21.10;52.50;;;24.99;35.43;98054.78;5095787;28;20059;-9
2021/10/21 06:29:16;;;;;;;2.15;1.83;;;21.20;52.50;;;24.99;35.48;98049.44;5076657;28;20396;-9
2021/10/21 06:31:42;;;;;;;2.13;1.92;;;21.20;52.40;;;24.99;35.47;98061.97;5095462;28;20051;-9
2021/10/21 06:34:11;;;;;;;3.25;2.08;;;21.20;52.40;;;24.99;35.40;98059.31;5095484;28;20048;-9
2021/10/21 06:36:37;;;;;;;3.28;2.20;;;21.20;52.40;;;24.96;35.23;98047.97;5095555;28;20070;-9
2021/10/21 06:39:04;;;;;;;1.92;1.75;;;21.20;52.50;;;24.98;35.47;98037.09;5095290;28;20476;-9
2021/10/21 06:41:30;;;;;;;2.47;1.63;;;21.10;52.50;;;24.98;35.48;98031.75;5095592;28;20085;-9
2021/10/21 06:43:56;;;;;;;2.97;1.83;;;21.10;52.50;;;24.98;35.41;98031.75;5095268;28;20124;-8
2021/10/21 06:46:22;;;;;;;2.40;1.67;;;21.10;52.70;;;24.99;35.37;98021.88;5095184;28;20484;-8
2021/10/21 06:48:48;;;;;;;2.53;1.73;;;21.00;52.70;;;24.99;35.39;98004.00;5095223;28;20048;-9
2021/10/21 06:51:14;;;;;;;3.35;1.80;;;21.10;52.50;;;25.00;35.46;98011.00;5095131;28;20105;-8
2021/10/21 06:53:40;;;;;;;2.65;1.85;;;21.10;52.60;;;24.96;35.33;98010.56;5077082;28;20067;-8
2021/10/21 06:56:06;;;;;;;3.08;1.42;;;21.10;52.70;;;25.01;35.46;98007.31;5095337;28;20048;-9
2021/10/21 06:58:33;;;;;;;2.15;1.80;;;21.10;52.70;;;25.00;35.42;97999.50;5076506;28;20143;-8
2021/10/21 07:00:59;;;;;;;2.90;1.60;;;21.10;52.50;;;24.97;35.36;98003.34;5095027;28;20067;-8
2021/10/21 07:03:26;;;;;;;2.03;1.30;;;21.00;52.60;;;24.98;35.31;98005.03;5095284;28;20050;-8
2021/10/21 07:05:53;;;;;;;2.78;1.83;;;21.10;52.60;;;24.97;35.55;98008.72;5094876;28;20111;-8
2021/10/21 07:08:20;;;;;;;2.28;1.80;;;21.00;52.70;;;24.99;35.40;97990.63;5093551;28;20056;-8
2021/10/21 07:10:47;;;;;;;1.92;1.60;;;21.10;52.70;;;24.97;35.44;97995.34;5094890;28;20500;-8
2021/10/21 07:13:13;;;;;;;2.83;2.00;;;21.00;52.70;;;25.01;35.27;97995.78;5094625;28;20056;-8
2021/10/21 07:15:39;;;;;;;1.73;1.48;;;21.00;52.80;;;24.98;35.49;97980.97;5094925;28;20055;-8
2021/10/21 07:18:05;;;;;;;3.15;1.88;;;21.10;52.70;;;25.01;35.32;97990.44;5094373;28;20110;-9
2021/10/21 07:20:31;;;;;;;1.55;1.45;;;21.10;52.70;;;25.00;35.31;97968.25;5094461;28;20101;-9
2021/10/21 07:22:58;;;;;;;1.67;1.33;;;21.00;52.70;;;24.98;35.42;97986.31;5094918;28;20131;-8
2021/10/21 07:25:27;;;;;;;2.33;1.70;;;21.00;52.80;;;24.98;35.40;97986.31;5095031;28;20400;-9
2021/10/21 07:27:53;;;;;;;3.10;1.48;;;21.00;52.90;;;25.03;35.50;97994.59;5094506;28;20082;-8
2021/10/21 07:30:18;;;;;;;1.95;1.55;;;21.00;53.00;;;24.99;35.29;97989.81;5094754;28;20044;-9
2021/10/21 07:32:44;;;;;;;3.05;1.70;;;20.90;53.00;;;25.00;35.30;98000.31;5094741;28;20036;-8
2021/10/21 07:35:11;;;;;;;1.90;1.55;;;21.00;53.00;;;25.02;35.26;97997.44;5094642;28;20123;-8
2021/10/21 07:37:36;;;;;;;1.80;1.70;;;21.00;52.80;;;25.03;35.29;97988.44;5094189;28;20097;-9
2021/10/21 07:40:04;;;;;;;2.33;1.88;;;21.10;52.70;;;25.00;35.39;97968.25;5093996;28;20052;-9
2021/10/21 07:42:30;;;;;;;3.70;1.73;;;21.00;52.70;;;25.01;35.40;97980.59;5094328;28;20050;-9
2021/10/21 07:44:57;;;;;;;2.83;1.45;;;21.00;52.80;;;25.00;35.08;97980.78;5094542;28;20040;-9
2021/10/21 07:47:23;;;;;;;3.08;1.75;;;21.10;52.70;;;25.01;35.49;97979.75;5094472;28;20044;-9
2021/10/21 07:49:49;;;;;;;1.60;1.50;;;21.10;52.50;;;25.02;35.25;97987.56;5094102;28;20051;-9
2021/10/21 07:52:17;;;;;;;1.73;1.50;;;21.10;52.40;;;25.04;35.31;97995.41;5075639;28;20048;-9
2021/10/21 07:54:46;;;;;;;2.35;1.55;;;21.10;52.60;;;25.04;35.34;97982.88;5094046;28;20056;-9
2021/10/21 07:57:17;;;;;;;2.42;1.60;;;21.10;52.50;;;25.05;35.38;97989.88;5094150;28;20048;-9
2021/10/21 07:59:43;;;;;;;2.33;1.60;;;21.10;52.40;;;25.05;35.24;97991.72;5093640;28;20484;-10
2021/10/21 08:02:09;;;;;;;2.45;1.85;;;21.20;52.30;;;25.05;35.35;97997.91;5093627;28;20051;-9
2021/10/21 08:04:35;;;;;;;3.03;1.60;;;21.20;52.20;;;25.07;35.22;98011.88;5093892;28;20123;-8
2021/10/21 08:07:04;;;;;;;2.03;1.83;;;21.20;52.40;;;25.05;35.07;98002.41;5093695;28;20048;-10
2021/10/21 08:09:31;;;;;;;1.40;1.27;;;21.10;52.40;;;25.08;35.26;98010.06;5093731;28;20516;-9
2021/10/21 08:12:02;;;;;;;1.85;1.65;;;21.20;52.40;;;25.07;35.17;98027.13;5093787;28;20043;-9
2021/10/21 08:14:28;;;;;;;2.45;1.70;;;21.20;52.40;;;25.09;35.02;98028.59;5075683;28;20114;-9
2021/10/21 08:16:54;;;;;;;1.77;1.42;;;21.20;52.40;;;25.08;35.37;98042.97;5093677;28;20052;-8
2021/10/21 08:19:21;;;;;;;2.25;1.60;;;21.10;52.40;;;25.11;35.24;98072.00;5093613;28;20503;-8
2021/10/21 08:21:47;;;;;;;3.83;1.90;;;21.20;52.30;;;25.12;35.01;98072.81;5093701;28;20125;-8
2021/10/21 08:24:14;;;;;;;2.03;1.60;;;21.20;52.10;;;25.10;35.26;98089.03;5093903;28;20047;-9
2021/10/21 08:26:41;;;;;;;2.33;1.60;;;21.30;52.10;;;25.09;35.11;98106.13;5093510;28;20093;-8
2021/10/21 08:29:07;;;;;;;3.00;1.42;;;21.40;52.00;;;25.10;35.31;98126.47;5093579;28;20113;-8
2021/10/21 08:31:33;;;;;;;2.63;1.40;;;21.30;51.90;;;25.13;35.27;98160.03;5093813;28;20044;-8
2021/10/21 08:33:59;;;;;;;3.30;1.58;;;21.30;51.90;;;25.12;35.20;98187.78;5074325;28;20129;-8
2021/10/21 08:36:25;;;;;;;3.65;1.50;;;21.40;51.90;;;25.09;34.96;98209.53;5093362;28;20044;-9
2021/10/21 08:38:52;;;;;;;2.55;1.45;;;21.30;51.90;;;25.13;35.10;98233.06;5093380;28;20059;-9
2021/10/21 08:41:20;;;;;;;1.75;1.30;;;21.30;51.90;;;25.12;35.20;98247.44;5093673;28;20063;-8
2021/10/21 08:43:47;;;;;;;1.70;1.50;;;21.40;51.90;;;25.13;35.13;98283.03;5093464;28;20052;-9
2021/10/21 08:46:22;;;;;;;4.00;1.60;;;21.40;51.90;;;25.11;35.18;98287.75;5093159;28;20055;-8
2021/10/21 08:48:58;;;;;;;2.35;1.60;;;21.30;52.00;;;25.06;35.14;98299.00;5092968;28;20044;-9
2021/10/21 08:51:25;;;;;;;3.38;1.42;;;21.30;51.90;;;25.11;35.21;98317.97;5093417;28;20048;-8
2021/10/21 08:53:51;;;;;;;1.90;1.48;;;21.40;51.90;;;25.13;35.23;98341.88;5093033;28;20613;-9
2021/10/21 08:56:25;;;;;;;1.30;1.20;;;21.40;51.90;;;25.09;35.05;98360.13;5093094;28;20048;-9
2021/10/21 08:58:55;;;;;;;2.30;1.50;;;21.40;51.90;;;25.09;35.23;98370.81;5093345;28;20142;-8
2021/10/21 09:02:04;;;;;;;3.03;1.58;;;21.40;51.90;;;25.11;35.17;98389.34;5074979;28;20051;-9
2021/10/21 09:07:54;;;;;;;2.70;1.67;;;21.40;51.80;;;25.12;34.98;98410.53;5092933;28;20044;-9
2021/10/21 09:09:33;;;;;;;2.92;1.48;;;21.30;51.80;;;25.16;34.97;98435.09;5092712;28;20044;-8
2021/10/21 09:12:14;;;;;;;2.03;1.38;;;21.30;51.70;;;25.16;35.21;98453.81;5074917;28;20048;-9
2021/10/21 09:14:42;;;;;;;;;;;21.40;51.80;;;25.30;34.92;98466.41;5091980;28;20056;-8
2021/10/21 09:17:11;;;;;;;3.05;1.65;;;21.40;51.80;;;25.22;34.88;98470.97;5092576;28;19924;-8
2021/10/21 09:19:40;;;;;;;2.35;1.30;;;21.40;51.70;;;25.19;35.01;98488.19;5092772;28;20052;-8
2021/10/21 09:22:23;;;;;;;2.35;1.50;;;21.40;51.60;;;25.19;35.18;98508.75;5093010;28;20071;-9
2021/10/21 09:24:50;;;;;;;2.22;1.52;;;21.50;51.60;;;25.21;35.07;98518.28;5092457;28;20134;-9
2021/10/21 09:27:24;;;;;;;2.92;1.50;;;21.50;51.60;;;25.21;35.21;98545.03;5092738;28;20048;-8
2021/10/21 09:29:56;;;;;;;4.07;1.40;;;21.40;51.60;;;25.20;35.11;98543.34;5092838;28;20185;-8
2021/10/21 09:32:27;;;;;;;2.88;1.38;;;21.50;51.60;;;25.22;35.07;98564.56;5091646;28;20441;-8
2021/10/21 09:35:02;;;;;;;2.08;1.50;;;21.50;51.50;;;25.23;34.96;98575.09;5092619;28;20048;-8
2021/10/21 09:37:34;;;;;;;1.40;1.30;;;21.50;51.60;;;25.23;34.96;98590.31;5074383;28;20055;-9
2021/10/21 09:40:21;;;;;;;2.55;1.60;;;21.40;51.60;;;25.21;35.00;98603.84;5092585;28;20484;-9
2021/10/21 09:43:06;;;;;;;1.60;1.33;;;21.40;51.80;;;25.23;35.01;98615.22;5092258;28;20052;-8
2021/10/21 09:45:41;;;;;;;2.25;1.38;;;21.30;51.90;;;25.22;34.93;98623.41;5092491;28;20056;-9
2021/10/21 09:48:08;;;;;;;1.60;1.40;;;21.40;51.80;;;25.22;34.90;98626.91;5092623;28;20075;-8
2021/10/21 09:50:46;;;;;;;1.98;1.40;;;21.40;51.90;;;25.20;35.03;98633.44;5092580;28;20058;-9
2021/10/21 09:53:20;;;;;;;2.08;1.40;;;21.30;51.80;;;25.22;34.92;98653.66;5092064;28;20044;-9
2021/10/21 09:56:04;;;;;;;2.65;1.40;;;21.40;51.90;;;25.23;35.00;98671.38;5092257;28;20056;-9
2021/10/21 09:58:36;;;;;;;2.65;1.20;;;21.40;51.80;;;25.21;34.90;98683.25;5072586;28;20053;-9
2021/10/21 10:01:11;;;;;;;1.65;1.20;;;21.30;51.70;;;25.20;34.90;98686.94;5092663;28;20056;-9
2021/10/21 10:03:43;;;;;;;2.60;1.50;;;21.40;51.80;;;25.22;34.81;98700.97;5092156;28;20040;-8
2021/10/21 10:06:17;;;;;;;2.30;1.40;;;21.40;51.70;;;25.22;34.96;98696.44;5092270;28;20048;-8
2021/10/21 10:08:45;;;;;;;3.92;1.75;;;21.40;51.70;;;25.19;34.93;98704.81;5091939;28;20044;-8
2021/10/21 10:11:15;;;;;;;1.63;1.35;;;21.40;51.70;;;25.19;34.98;98712.84;5074009;28;20045;-9
2021/10/21 10:13:44;;;;;;;1.70;1.27;;;21.40;51.70;;;25.23;34.94;98748.13;5092126;28;20052;-9
2021/10/21 10:16:10;;;;;;;2.10;1.27;;;21.40;51.60;;;25.19;34.99;98752.13;5091859;28;20075;-8
2021/10/21 10:18:42;;;;;;;3.63;1.50;;;21.40;51.60;;;25.20;34.87;98772.53;5073710;28;20047;-9
2021/10/21 10:21:20;;;;;;;2.00;1.40;;;21.40;51.50;;;25.17;35.08;98772.88;5090527;28;20479;-8
2021/10/21 10:24:02;;;;;;;1.60;1.40;;;21.40;51.70;;;25.18;34.86;98802.09;5089687;28;20049;-8
2021/10/21 10:26:56;;;;;;;3.33;1.60;;;21.30;51.90;;;25.17;34.99;98804.97;5094411;28;20472;-9
2021/10/21 10:29:31;;;;;;;2.53;1.80;;;21.30;51.80;;;25.16;34.99;98817.50;5095313;28;20381;-9